createdAt,value
2023-04-26T00:01:40.465Z,99681.56
2023-04-26T00:04:43.545Z,99684.28
2023-04-26T00:07:46.709Z,99687.06
2023-04-26T00:10:49.688Z,99692.50
2023-04-26T00:13:52.282Z,99687.53
2023-04-26T00:16:55.234Z,99686.44
2023-04-26T00:19:58.194Z,99701.44
2023-04-26T00:23:00.996Z,99702.63
2023-04-26T00:26:04.067Z,99705.63
2023-04-26T00:29:06.748Z,99706.91
2023-04-26T00:32:09.344Z,99708.44
2023-04-26T00:35:12.440Z,99709.81
2023-04-26T00:38:14.953Z,99711.75
2023-04-26T00:41:18.013Z,99699.66
2023-04-26T00:44:20.603Z,99709.84
2023-04-26T00:47:25.317Z,99712.19
2023-04-26T00:50:29.058Z,99709.34
2023-04-26T00:53:32.810Z,99710.84
2023-04-26T00:56:37.064Z,99709.28
2023-04-26T00:59:40.101Z,99712.59
2023-04-26T01:02:43.128Z,99718.47
2023-04-26T01:05:46.173Z,99719.09
2023-04-26T01:08:52.222Z,99703.41
2023-04-26T01:11:58.420Z,99715.44
2023-04-26T01:15:01.458Z,99721.34
2023-04-26T01:18:04.310Z,99729.13
2023-04-26T01:21:07.163Z,99729.88
2023-04-26T01:24:11.271Z,99722.22
2023-04-26T01:27:14.255Z,99733.72
2023-04-26T01:30:17.131Z,99734.31
2023-04-26T01:33:19.966Z,99732.50
2023-04-26T01:36:22.945Z,99723.38
2023-04-26T01:39:25.435Z,99730.13
2023-04-26T01:42:28.162Z,99728.56
2023-04-26T01:45:31.117Z,99730.63
2023-04-26T01:48:53.011Z,99726.59
2023-04-26T01:51:56.294Z,99729.44
2023-04-26T01:55:00.197Z,99733.44
2023-04-26T01:58:03.008Z,99732.88
2023-04-26T02:01:10.025Z,99733.94
2023-04-26T02:04:13.087Z,99724.66
2023-04-26T02:07:16.300Z,99720.16
2023-04-26T02:10:21.514Z,99725.13
2023-04-26T02:13:24.830Z,99731.22
2023-04-26T02:16:27.312Z,99731.22
2023-04-26T02:19:30.266Z,99723.25
2023-04-26T02:22:33.032Z,99733.72
2023-04-26T02:25:36.346Z,99736.00
2023-04-26T02:28:39.257Z,99727.84
2023-04-26T02:31:42.411Z,99728.44
2023-04-26T02:34:45.134Z,99737.56
2023-04-26T02:37:49.328Z,99727.88
2023-04-26T02:40:59.946Z,99726.28
2023-04-26T02:44:02.823Z,99725.03
2023-04-26T02:47:05.422Z,99728.06
2023-04-26T02:50:09.410Z,99727.56
2023-04-26T02:53:13.282Z,99727.06
2023-04-26T02:56:16.625Z,99743.28
2023-04-26T02:59:19.360Z,99738.75
2023-04-26T03:02:22.472Z,99746.31
2023-04-26T03:05:25.727Z,99747.41
2023-04-26T03:08:29.233Z,99746.72
2023-04-26T03:11:32.049Z,99741.94
2023-04-26T03:14:35.558Z,99742.91
2023-04-26T03:17:38.273Z,99745.16
2023-04-26T03:20:42.521Z,99750.72
2023-04-26T03:23:46.259Z,99754.34
2023-04-26T03:26:51.242Z,99761.34
2023-04-26T03:29:54.506Z,99765.06
2023-04-26T03:32:58.270Z,99769.56
2023-04-26T03:36:01.107Z,99779.63
2023-04-26T03:39:05.799Z,99778.94
2023-04-26T03:42:09.274Z,99782.09
2023-04-26T03:45:12.345Z,99781.94
2023-04-26T03:48:14.977Z,99786.53
2023-04-26T03:51:17.847Z,99788.00
2023-04-26T03:54:20.302Z,99787.56
2023-04-26T03:57:23.391Z,99798.38
2023-04-26T04:00:26.371Z,99787.81
2023-04-26T04:03:30.694Z,99801.63
2023-04-26T04:06:33.300Z,99806.16
2023-04-26T04:09:37.054Z,99822.84
2023-04-26T04:12:39.553Z,99823.47
2023-04-26T04:15:42.557Z,99837.63
2023-04-26T04:18:45.096Z,99843.72
2023-04-26T04:21:47.972Z,99834.00
2023-04-26T04:24:51.261Z,99839.91
2023-04-26T04:27:54.192Z,99847.34
2023-04-26T04:30:57.224Z,99851.25
2023-04-26T04:34:00.361Z,99855.28
2023-04-26T04:37:04.322Z,99856.75
2023-04-26T04:40:11.696Z,99857.63
2023-04-26T04:43:16.890Z,99861.94
2023-04-26T04:46:20.103Z,99868.13
2023-04-26T04:49:24.714Z,99856.34
2023-04-26T04:52:27.704Z,99858.50
2023-04-26T04:55:30.484Z,99861.31
2023-04-26T04:58:33.834Z,99865.72
2023-04-26T05:01:38.515Z,99866.34
2023-04-26T05:04:45.702Z,99870.88
2023-04-26T05:07:48.662Z,99869.97
2023-04-26T05:10:52.130Z,99874.09
2023-04-26T05:13:54.947Z,99877.09
2023-04-26T05:16:57.820Z,99876.63
2023-04-26T05:20:04.171Z,99889.13
2023-04-26T05:23:07.395Z,99901.28
2023-04-26T05:26:19.272Z,99908.16
2023-04-26T05:29:42.319Z,99900.00
2023-04-26T05:32:59.014Z,99904.38
2023-04-26T05:36:20.299Z,99899.75
2023-04-26T05:39:23.696Z,99905.56
2023-04-26T05:42:27.358Z,99903.34
2023-04-26T05:45:30.009Z,99905.09
2023-04-26T05:48:32.745Z,99914.06
2023-04-26T05:51:35.462Z,99909.28
2023-04-26T05:54:37.998Z,99913.84
2023-04-26T05:57:41.041Z,99918.16
2023-04-26T06:00:45.051Z,99930.84
2023-04-26T06:03:48.039Z,99931.09
2023-04-26T06:06:53.818Z,99937.16
2023-04-26T06:09:58.188Z,99943.78
2023-04-26T06:13:01.074Z,99944.25
2023-04-26T06:16:06.197Z,99953.19
2023-04-26T06:19:09.116Z,99958.03
2023-04-26T06:22:11.794Z,99958.03
2023-04-26T06:25:15.421Z,99953.50
2023-04-26T06:28:18.266Z,99958.38
2023-04-26T06:31:22.960Z,99965.53
2023-04-26T06:34:25.769Z,99965.03
2023-04-26T06:37:28.468Z,99972.81
2023-04-26T06:40:35.148Z,99967.56
2023-04-26T06:43:37.907Z,99970.00
2023-04-26T06:46:55.520Z,99963.03
2023-04-26T06:49:58.200Z,99971.44
2023-04-26T06:53:00.823Z,99979.50
2023-04-26T06:56:03.664Z,99974.34
2023-04-26T06:59:07.816Z,99979.41
2023-04-26T07:02:10.851Z,99983.94
2023-04-26T07:05:15.310Z,99984.59
2023-04-26T07:08:18.332Z,100000.47
2023-04-26T07:11:22.395Z,100002.53
2023-04-26T07:14:26.664Z,99995.38
2023-04-26T07:17:29.272Z,99997.34
2023-04-26T07:20:32.512Z,99995.75
2023-04-26T07:23:35.551Z,99999.13
2023-04-26T07:26:38.394Z,100000.22
2023-04-26T07:29:40.996Z,100000.50
2023-04-26T07:32:43.669Z,100009.25
2023-04-26T07:35:54.874Z,100014.50
2023-04-26T07:38:57.673Z,100018.28
2023-04-26T07:42:00.415Z,100017.72
2023-04-26T07:45:03.816Z,100017.69
2023-04-26T07:48:06.674Z,100017.72
2023-04-26T07:51:10.939Z,100023.19
2023-04-26T07:54:13.520Z,100023.84
2023-04-26T07:57:16.611Z,100027.41
2023-04-26T08:00:19.951Z,100021.97
2023-04-26T08:03:22.872Z,100028.19
2023-04-26T08:06:26.119Z,100028.31
2023-04-26T08:09:30.770Z,100035.09
2023-04-26T08:12:35.492Z,100034.59
2023-04-26T08:15:38.058Z,100030.41
2023-04-26T08:18:40.722Z,100039.47
2023-04-26T08:21:43.724Z,100036.44
2023-04-26T08:24:49.963Z,100034.59
2023-04-26T08:27:52.765Z,100035.59
2023-04-26T08:30:56.884Z,100040.09
2023-04-26T08:33:59.612Z,100048.84
2023-04-26T08:37:02.082Z,100042.59
2023-04-26T08:40:09.701Z,100034.22
2023-04-26T08:43:15.289Z,100036.84
2023-04-26T08:46:20.920Z,100036.13
2023-04-26T08:49:42.595Z,100041.06
2023-04-26T08:52:48.850Z,100035.34
2023-04-26T08:55:51.598Z,100048.34
2023-04-26T08:58:54.594Z,100049.56
2023-04-26T09:01:58.201Z,100055.09
2023-04-26T09:05:01.221Z,100052.31
2023-04-26T09:08:07.336Z,100054.59
2023-04-26T09:11:10.155Z,100046.72
2023-04-26T09:14:12.568Z,100044.31
2023-04-26T09:17:32.747Z,100047.34
2023-04-26T09:20:35.411Z,100048.41
2023-04-26T09:23:57.978Z,100049.31
2023-04-26T09:27:03.787Z,100054.03
2023-04-26T09:30:09.956Z,100053.47
2023-04-26T09:33:12.645Z,100063.22
2023-04-26T09:36:15.761Z,100053.41
2023-04-26T09:39:34.324Z,100053.28
2023-04-26T09:42:36.935Z,100049.28
2023-04-26T09:45:50.608Z,100049.84
2023-04-26T09:49:03.718Z,100047.59
2023-04-26T09:52:06.920Z,100049.16
2023-04-26T09:55:14.379Z,100031.25
2023-04-26T09:58:23.189Z,100040.47
2023-04-26T10:01:28.717Z,100043.47
2023-04-26T10:04:32.172Z,100038.31
2023-04-26T10:07:35.119Z,100040.03
2023-04-26T10:10:38.545Z,100039.91
2023-04-26T10:13:43.203Z,100045.53
2023-04-26T10:16:47.172Z,100048.22
2023-04-26T10:19:54.910Z,100044.34
2023-04-26T10:23:01.584Z,100054.09
2023-04-26T10:26:04.642Z,100049.19
2023-04-26T10:29:08.198Z,100046.03
2023-04-26T10:32:16.997Z,100039.34
2023-04-26T10:35:20.179Z,100038.41
2023-04-26T10:38:22.783Z,100038.50
2023-04-26T10:41:34.051Z,100041.91
2023-04-26T10:44:42.570Z,100049.72
2023-04-26T10:47:45.054Z,100055.09
2023-04-26T10:51:05.690Z,100053.19
2023-04-26T10:54:08.250Z,100053.69
2023-04-26T10:57:11.086Z,100051.16
2023-04-26T11:00:17.278Z,100048.41
2023-04-26T11:03:23.427Z,100059.03
2023-04-26T11:06:26.934Z,100051.97
2023-04-26T11:09:40.951Z,100058.63
2023-04-26T11:13:01.049Z,100052.25
2023-04-26T11:16:06.475Z,100062.06
2023-04-26T11:19:09.979Z,100064.41
2023-04-26T11:22:12.834Z,100057.59
2023-04-26T11:25:15.448Z,100064.81
2023-04-26T11:28:19.644Z,100068.03
2023-04-26T11:31:22.280Z,100063.34
2023-04-26T11:34:35.395Z,100072.56
2023-04-26T11:37:37.915Z,100065.44
2023-04-26T11:40:41.815Z,100070.38
2023-04-26T11:43:44.306Z,100073.00
2023-04-26T11:46:48.937Z,100069.97
2023-04-26T11:49:52.107Z,100073.94
2023-04-26T11:53:01.103Z,100073.88
2023-04-26T11:56:05.688Z,100071.34
2023-04-26T11:59:08.284Z,100069.19
2023-04-26T12:02:11.030Z,100073.81
2023-04-26T12:05:32.838Z,100066.22
2023-04-26T12:08:35.714Z,100073.94
2023-04-26T12:11:38.930Z,100065.50
2023-04-26T12:14:41.541Z,100073.38
2023-04-26T12:17:59.268Z,100069.38
2023-04-26T12:21:02.439Z,100063.34
2023-04-26T12:24:05.126Z,100065.47
2023-04-26T12:27:08.006Z,100068.41
2023-04-26T12:30:11.309Z,100069.31
2023-04-26T12:33:17.429Z,100069.66
2023-04-26T12:36:21.168Z,100069.59
2023-04-26T12:39:23.749Z,100076.38
2023-04-26T12:42:26.786Z,100074.69
2023-04-26T12:45:29.447Z,100069.22
2023-04-26T12:48:31.992Z,100065.47
2023-04-26T12:51:34.591Z,100069.91
2023-04-26T12:54:37.546Z,100072.09
2023-04-26T12:57:42.003Z,100078.63
2023-04-26T13:00:44.704Z,100078.34
2023-04-26T13:03:47.584Z,100073.38
2023-04-26T13:06:50.344Z,100075.91
2023-04-26T13:09:53.174Z,100076.38
2023-04-26T13:12:55.976Z,100065.81
2023-04-26T13:15:59.280Z,100064.00
2023-04-26T13:19:02.178Z,100066.16
2023-04-26T13:22:07.657Z,100065.19
2023-04-26T13:25:11.168Z,100072.72
2023-04-26T13:28:15.099Z,100072.41
2023-04-26T13:31:18.220Z,100084.72
2023-04-26T13:34:21.188Z,100078.09
2023-04-26T13:37:23.953Z,100072.91
2023-04-26T13:40:30.905Z,100086.69
2023-04-26T13:43:33.587Z,100088.22
2023-04-26T13:46:36.470Z,100085.16
2023-04-26T13:49:41.854Z,100086.97
2023-04-26T13:52:45.009Z,100085.94
2023-04-26T13:55:48.243Z,100090.88
2023-04-26T13:58:54.973Z,100091.22
2023-04-26T14:01:59.150Z,100099.06
2023-04-26T14:05:02.573Z,100092.88
2023-04-26T14:08:06.041Z,100095.94
2023-04-26T14:11:09.084Z,100100.69
2023-04-26T14:14:11.753Z,100112.63
2023-04-26T14:17:14.464Z,100107.16
2023-04-26T14:20:17.160Z,100109.94
2023-04-26T14:23:19.717Z,100109.19
2023-04-26T14:26:25.999Z,100122.34
2023-04-26T14:29:29.109Z,100116.69
2023-04-26T14:32:31.861Z,100111.63
2023-04-26T14:35:34.538Z,100118.28
2023-04-26T14:38:37.684Z,100126.66
2023-04-26T14:41:40.266Z,100130.66
2023-04-26T14:44:43.102Z,100123.75
2023-04-26T14:47:45.791Z,100123.34
2023-04-26T14:50:48.684Z,100132.56
2023-04-26T14:53:51.220Z,100133.03
2023-04-26T14:56:54.080Z,100136.53
2023-04-26T15:00:06.897Z,100134.75
2023-04-26T15:03:09.780Z,100143.59
2023-04-26T15:06:12.471Z,100137.81
2023-04-26T15:09:15.326Z,100141.44
2023-04-26T15:12:17.973Z,100144.38
2023-04-26T15:15:20.520Z,100148.44
2023-04-26T15:18:23.112Z,100157.22
2023-04-26T15:21:25.807Z,100163.06
2023-04-26T15:24:28.525Z,100157.41
2023-04-26T15:27:31.233Z,100166.97
2023-04-26T15:30:34.358Z,100166.31
2023-04-26T15:33:37.049Z,100168.00
2023-04-26T15:36:39.887Z,100174.28
2023-04-26T15:39:42.471Z,100168.38
2023-04-26T15:42:45.306Z,100170.06
2023-04-26T15:45:49.108Z,100171.97
2023-04-26T15:48:51.772Z,100180.41
2023-04-26T15:51:54.762Z,100183.34
2023-04-26T15:54:57.455Z,100187.47
2023-04-26T15:58:00.308Z,100178.09
2023-04-26T16:01:03.726Z,100180.88
2023-04-26T16:04:06.432Z,100180.66
2023-04-26T16:07:09.191Z,100181.13
2023-04-26T16:10:12.212Z,100178.09
2023-04-26T16:13:16.039Z,100178.88
2023-04-26T16:16:21.405Z,100192.22
2023-04-26T16:19:26.724Z,100191.28
2023-04-26T16:22:32.463Z,100195.22
2023-04-26T16:25:36.090Z,100205.69
2023-04-26T16:28:39.293Z,100211.81
2023-04-26T16:31:42.320Z,100212.63
2023-04-26T16:34:44.764Z,100213.88
2023-04-26T16:37:47.619Z,100223.28
2023-04-26T16:40:58.067Z,100224.19
2023-04-26T16:44:01.038Z,100225.59
2023-04-26T16:47:04.043Z,100231.56
2023-04-26T16:50:07.128Z,100237.53
2023-04-26T16:53:10.531Z,100246.56
2023-04-26T16:56:13.056Z,100241.38
2023-04-26T17:02:53.072Z,100265.44
2023-04-26T17:05:55.983Z,100265.88
2023-04-26T17:08:58.586Z,100275.66
2023-04-26T17:12:02.685Z,100281.28
2023-04-26T17:15:07.262Z,100291.16
2023-04-26T17:18:10.123Z,100282.44
2023-04-26T17:21:12.988Z,100289.47
2023-04-26T17:24:16.640Z,100293.28
2023-04-26T17:27:19.217Z,100305.13
2023-04-26T17:30:22.429Z,100297.94
2023-04-26T17:33:26.127Z,100310.03
2023-04-26T17:36:28.991Z,100316.13
2023-04-26T17:39:31.870Z,100321.56
2023-04-26T17:42:34.777Z,100321.69
2023-04-26T17:45:37.472Z,100324.50
2023-04-26T17:48:40.275Z,100334.19
2023-04-26T17:51:42.885Z,100336.81
2023-04-26T17:54:45.764Z,100347.31
2023-04-26T17:57:48.771Z,100351.69
2023-04-26T18:00:52.200Z,100352.81
2023-04-26T18:03:55.447Z,100345.13
2023-04-26T18:06:57.991Z,100352.53
2023-04-26T18:10:00.946Z,100349.56
2023-04-26T18:13:03.500Z,100359.94
2023-04-26T18:16:06.752Z,100358.06
2023-04-26T18:19:09.826Z,100364.66
2023-04-26T18:22:12.719Z,100363.88
2023-04-26T18:25:15.559Z,100367.63
2023-04-26T18:28:18.597Z,100369.97
2023-04-26T18:31:22.808Z,100376.69
2023-04-26T18:34:25.549Z,100377.28
2023-04-26T18:37:28.489Z,100384.34
2023-04-26T18:40:31.564Z,100385.63
2023-04-26T18:43:34.962Z,100385.53
2023-04-26T18:46:37.860Z,100399.41
2023-04-26T18:49:40.684Z,100392.03
2023-04-26T18:52:45.201Z,100403.84
2023-04-26T18:55:48.173Z,100399.50
2023-04-26T18:58:50.746Z,100401.97
2023-04-26T19:01:53.924Z,100400.38
2023-04-26T19:04:57.963Z,100403.06
2023-04-26T19:08:00.789Z,100407.78
2023-04-26T19:11:03.830Z,100409.81
2023-04-26T19:14:06.384Z,100412.09
2023-04-26T19:17:09.040Z,100413.88
2023-04-26T19:20:14.037Z,100404.63
2023-04-26T19:23:16.851Z,100408.97
2023-04-26T19:26:19.772Z,100405.72
2023-04-26T19:29:22.822Z,100406.41
2023-04-26T19:32:25.571Z,100408.25
2023-04-26T19:35:28.746Z,100422.53
2023-04-26T19:38:31.579Z,100421.75
2023-04-26T19:41:34.685Z,100418.09
2023-04-26T19:44:39.331Z,100420.16
2023-04-26T19:47:42.788Z,100425.78
2023-04-26T19:50:46.645Z,100431.13
2023-04-26T19:53:49.609Z,100429.19
2023-04-26T19:56:52.349Z,100431.50
2023-04-26T19:59:54.956Z,100437.59
2023-04-26T20:02:59.035Z,100433.38
2023-04-26T20:06:02.261Z,100443.97
2023-04-26T20:09:06.986Z,100442.31
2023-04-26T20:12:10.000Z,100444.25
2023-04-26T20:15:14.865Z,100452.13
2023-04-26T20:18:17.802Z,100451.84
2023-04-26T20:21:20.590Z,100450.34
2023-04-26T20:24:24.646Z,100460.28
2023-04-26T20:27:27.385Z,100453.28
2023-04-26T20:30:33.894Z,100453.38
2023-04-26T20:33:36.756Z,100463.59
2023-04-26T20:36:40.752Z,100464.47
2023-04-26T20:39:43.467Z,100465.19
2023-04-26T20:42:47.039Z,100464.78
2023-04-26T20:45:51.463Z,100469.75
2023-04-26T20:48:54.956Z,100477.53
2023-04-26T20:51:58.253Z,100474.31
2023-04-26T20:55:01.096Z,100478.34
2023-04-26T20:58:03.782Z,100476.34
2023-04-26T21:01:07.409Z,100477.09
2023-04-26T21:04:11.218Z,100478.19
2023-04-26T21:07:14.201Z,100473.53
2023-04-26T21:10:17.914Z,100484.91
2023-04-26T21:13:20.650Z,100496.91
2023-04-26T21:16:23.152Z,100497.19
2023-04-26T21:19:26.225Z,100500.00
2023-04-26T21:22:28.853Z,100506.75
2023-04-26T21:25:31.666Z,100509.41
2023-04-26T21:28:34.475Z,100504.59
2023-04-26T21:31:37.792Z,100508.91
2023-04-26T21:34:40.464Z,100517.78
2023-04-26T21:37:43.195Z,100518.44
2023-04-26T21:40:45.709Z,100517.25
2023-04-26T21:43:48.492Z,100515.63
2023-04-26T21:46:50.953Z,100516.00
2023-04-26T21:49:54.269Z,100523.00
2023-04-26T21:52:56.916Z,100532.19
2023-04-26T21:56:00.022Z,100534.75
2023-04-26T21:59:02.656Z,100537.22
2023-04-26T22:02:05.258Z,100540.22
2023-04-26T22:05:08.400Z,100545.09
2023-04-26T22:08:11.394Z,100543.31
2023-04-26T22:11:13.948Z,100542.06
2023-04-26T22:14:16.967Z,100549.59
2023-04-26T22:17:19.576Z,100542.09
2023-04-26T22:20:22.840Z,100555.91
2023-04-26T22:23:25.886Z,100547.91
2023-04-26T22:26:28.569Z,100557.06
2023-04-26T22:29:31.244Z,100559.16
2023-04-26T22:32:34.073Z,100563.44
2023-04-26T22:35:36.802Z,100560.50
2023-04-26T22:38:39.976Z,100565.69
2023-04-26T22:41:42.434Z,100569.25
2023-04-26T22:44:46.815Z,100573.28
2023-04-26T22:47:49.410Z,100573.75
2023-04-26T22:50:52.335Z,100580.06
2023-04-26T22:53:55.389Z,100579.84
2023-04-26T22:56:58.099Z,100576.81
2023-04-26T23:00:00.899Z,100573.53
2023-04-26T23:03:03.798Z,100573.75
2023-04-26T23:06:07.229Z,100575.16
2023-04-26T23:09:10.583Z,100580.44
2023-04-26T23:12:23.688Z,100585.81
2023-04-26T23:15:27.190Z,100585.59
2023-04-26T23:18:30.107Z,100581.78
2023-04-26T23:21:32.873Z,100592.19
2023-04-26T23:24:35.456Z,100596.06
2023-04-26T23:27:38.687Z,100593.19
2023-04-26T23:30:41.465Z,100592.00
2023-04-26T23:33:44.478Z,100593.34
2023-04-26T23:36:46.946Z,100601.28
2023-04-26T23:39:50.030Z,100597.41
2023-04-26T23:42:52.488Z,100601.69
2023-04-26T23:45:56.161Z,100606.19
2023-04-26T23:48:58.757Z,100595.34
2023-04-26T23:52:01.866Z,100605.47
2023-04-26T23:55:04.863Z,100595.63
2023-04-26T23:58:07.790Z,100604.47
